EKs Grill 5K

Back to 2017 Road Races

2017 Road Race #5

2017-05-21, Kelowna, 5.0 km
# Name City Age GP CP Time Pace
1 Brad Bickley Kelowna M25-29 0:15:58 03:11
2 Josh Heinrich Penticton M35-39 0:16:55 03:23
3 Malindi Elmore Kelowna F35-39 0:17:07 03:25
4 David Guss Calgary M55-59 0:17:10 03:26
5 Jason Deleurme Kelowna M40-44 4 0:17:31 03:30
6 Luc Wittig Calgary M25-29 5 0:17:37 03:31
7 Christy Lovig Kelowna F40-44 0:17:47 03:33
8 Zach Jackman Kelowna M20-24 6 0:17:51 03:34
9 Liam Mcgrath Vernon M16-19 7 0:18:16 03:39
10 Sergio Cergueira Kelowna M50-54 8 0:18:24 03:40
11 Dustin Quigley Kelowna M30-34 9 0:18:35 03:43
12 Richard Dueck Kelowna M45-49 10 0:18:59 03:47
13 Humphrey Chau Kelowna M30-34 11 0:19:20 03:52
14 Johannes Raath Kamloops M35-39 12 0:20:14 04:02
15 Daryl Schwarz Kelowna M40-44 13 0:21:38 04:19
16 Cindy Rhodes Kelowna F60-64 0:21:39 04:19
17 Emelia Schwarz Kelowna F01-15 4 0:21:44 04:20
18 Lance Zablotney Penticton M55-59 14 0:21:46 04:21
19 Todd Benson Vernon M45-49 15 0:21:51 04:22
20 Jane Jones Kelowna F40-44 5 0:22:04 04:24
21 Siobhan Mcmanus Kelowna F30-34 6 0:22:10 04:26
22 Roly Muller Kelowna M65-69 16 0:22:20 04:28
23 Chuck Abney Kelowna M60-64 17 0:22:35 04:31
24 Jill Emery Kamloops F45-49 7 0:22:57 04:35
25 Laurelee Nelson Kelowna F60-64 8 0:22:58 04:35
26 Leslie Gamble Kelowna F50-54 9 0:23:09 04:37
27 Rob Ewanuk Kelowna M40-44 18 0:23:16 04:39
28 Matthew Turmaine Kelowna M35-39 19 0:23:28 04:41
29 Christopher Kape Vancouver M40-44 20 4 0:23:36 04:43
30 Sarah Jolly Kelowna F35-39 10 0:23:42 04:44
31 Maggie Mcleod Kamloops F20-24 11 0:23:45 04:45
32 Judith Kaplan Kelowna F30-34 12 0:23:53 04:46
33 Stephen Joyce Coldstream M55-59 21 0:23:55 04:47
34 Duncan Muller Fernie M25-29 22 0:24:19 04:51
35 Teddy Boyko Kelowna M70-74 23 0:24:26 04:53
36 Tim Brockholm Vernon M45-49 24 0:24:30 04:54
37 Charlene Nixon Kelowna F30-34 13 0:24:32 04:54
38 Alex Dittrich Calgary F20-24 14 0:24:46 04:57
39 Carman-Anne Schulz Kamloops F60-64 15 0:24:50 04:58
40 Julie Quigley Kelowna F30-34 16 4 0:24:54 04:58
41 Colin Dyke Kamloops M45-49 25 4 0:24:58 04:59
42 Al Gillespie Kelowna M65-69 26 0:25:03 05:00
43 Janice Bradshaw West Kelowna F50-54 17 0:25:07 05:01
44 Markus Glowacki Kelowna M20-24 27 0:25:16 05:03
45 Ray Crampton Vernon M55-59 28 4 0:25:20 05:04
46 Jamye Bush Kelowna F35-39 18 0:25:22 05:04
47 Diane Leonard Kelowna F70-74 19 0:25:30 05:06
48 Diana Gravelle Kelowna F30-34 20 5 0:25:39 05:07
49 Peter Pollhammer Kelowna M70-74 29 0:25:53 05:10
50 Megan Chandler Kelowna F35-39 21 4 0:25:56 05:11
51 Lindsay Mcgale Kelowna F35-39 22 5 0:26:00 05:12
52 Michelle Ciolli Kelowna F25-29 23 0:26:00 05:12
53 Matt Couzens Kelowna M40-44 30 5 0:26:20 05:16
54 Melanie Boskill Kelowna F35-39 24 6 0:26:22 05:16
55 Patrick Amundsen Summerland M60-64 31 0:26:41 05:20
56 Shelley Couch Stony Plain F50-54 25 0:26:56 05:23
57 Pamela Brockholm Vernon F50-54 26 4 0:26:58 05:23
58 Markus Heinrichs Kelowna M50-54 32 0:27:13 05:26
59 Cadence Quigley Kelowna F01-15 27 0:27:23 05:28
60 Markus Woloshyn Kelowna M01-15 33 0:27:46 05:33
61 Julie Rand Kelowna F40-44 28 0:27:50 05:34
62 Jennifer Wells Kelowna F25-29 29 0:28:06 05:37
63 Astrid Varga Kelowna F65-69 30 0:28:11 05:38
64 Wendy Krasuin Armstrong F50-54 31 5 0:28:16 05:39
65 Lienke Raath Kamloops F01-15 32 0:28:20 05:40
66 Bill Spill Kelowna M60-64 34 0:28:25 05:41
67 Cathy Schwarz Kelowna F60-64 33 4 0:28:37 05:43
68 Steve Woloshyn Kelowna M45-49 35 5 0:28:37 05:43
69 Eric Elle Vernon M65-69 36 0:29:00 05:48
70 Hayden Bush Kelowna M01-15 37 0:29:09 05:49
71 Holly Kadlec Kelowna F60-64 34 5 0:29:14 05:50
72 Sandra Wike Kelowna F60-64 35 6 0:29:16 05:51
73 Ron Carpenter Kelowna M40-44 38 6 0:29:17 05:51
74 Niel Friesen Kelowna M40-44 39 7 0:29:28 05:53
75 Laura Heggenstaller Armstrong F45-49 36 0:29:30 05:54
76 Cara Pells Kelowna F45-49 37 0:29:48 05:57
77 Angela Ivany Kelowna F35-39 38 7 0:29:50 05:58
78 Davis Spencer Kelowna M16-19 40 0:29:55 05:59
79 Melvin Doherty Kamloops M65-69 41 4 0:30:19 06:03
80 Luke Whittall Oliver M40-44 42 8 0:30:26 06:05
81 Ellie Smith Kelowna F01-15 39 4 0:30:58 06:11
82 Lyla Mcgale Kelowna F01-15 40 5 0:30:59 06:11
83 Rebekah Johnston Kelowna F35-39 41 8 0:31:02 06:12
84 Liz Borrett Kelowna F75-79 42 0:31:11 06:14
85 Jacqui Allison Kelowna F60-64 43 7 0:32:05 06:25
86 Ann-Katrine Giroux Lake Country F30-34 44 6 0:32:25 06:29
87 Nikki Williams Kelowna F40-44 45 4 0:32:54 06:34
88 Kim Mcdonough Penticton F45-49 46 4 0:32:58 06:35
89 Cindy Munn Kelowna F60-64 47 8 0:33:28 06:41
90 Judy Lloyd Kelowna F70-74 48 0:33:49 06:45
91 Rosemary Sayles Kelowna F70-74 49 0:34:09 06:49
92 Bruce Butcher Kamloops M80-84 43 0:34:29 06:53
93 Janine Thompson Kelowna F45-49 50 5 0:34:57 06:59
94 Debbie Sevigny Salmon Arm F55-59 51 0:35:03 07:00
95 Robert Toma Kelowna M70-74 44 0:35:08 07:01
96 Alice Blackmore Kelowna F50-54 52 6 0:35:13 07:02
97 Kristin Whitehead Kelowna F25-29 53 0:35:13 07:02
98 Leah Crampton Vernon F45-49 54 6 0:35:24 07:04
99 Ashley Quigley Kelowna F01-15 55 6 0:35:51 07:10
100 Karen Willies Kamloops F70-74 56 4 0:36:26 07:17
101 Kris Edwards Kelowna M25-29 45 4 0:36:31 07:18
102 Kathleen Dale Kelowna F20-24 57 0:37:56 07:35
103 Linda Hansen Kelowna F50-54 58 7 0:38:15 07:39
104 Amy Markin Vernon F35-39 59 9 0:38:58 07:47
105 Richard Markin Vernon M60-64 46 4 0:39:00 07:48
106 Warren Nabozniak Kelowna M50-54 47 0:40:13 08:02
107 David Skowronski Kelowna M30-34 48 0:40:14 08:02
108 Scott Todd Kelowna M45-49 49 6 0:40:14 08:02
109 Sylvia Thompson West Kelowna F60-64 60 9 0:40:25 08:05
110 Jim Lawrence Kelowna M75-79 50 0:40:55 08:11
111 Corrine Gable Kelowna F50-54 61 8 0:40:56 08:11
112 Sharon Gillespie Kelowna F55-59 62 0:42:20 08:28
Missing or Incorrect Results